• Join FlightAware (Why Join?)
  • Login
  • US Flag 
09:11PM EDT


 

Airport Tracker/Info


-or-


 

Live Flight TrackerFlight Track Log ✈ N575EW ✈ 03-Jul-2013 ✈ KCBF - KGPI

Flight Track Log - Related Links

Times and Time Zones

All times are in EDT time to prevent confusion due to time zone crossing. See the N575EW flight status page for this flight to view local times or setup timezone preferences in your user account.

Time Position Orientation Groundspeed Altitude Reporting Facility
EDT Latitude Longitude Course Direction KTS MPH feet Rate Location/Type
01:50PM 41.3267 -95.7689 355° North 185 213 3,000  Level Minneapolis Center
01:51PM 41.3761 -95.7911 341° North 195 224 4,700 1,800 Climbing Minneapolis Center
01:52PM 41.4150 -95.8533 310° West 219 252 6,700 2,040 Climbing Minneapolis Center
01:53PM 41.4531 -95.9403 300° West 227 261 9,000 2,100 Climbing Minneapolis Center
01:54PM 41.4850 -96.0144 300° West 237 273 11,000 1,800 Climbing Minneapolis Center
01:55PM 41.5233 -96.0856 306° West 241 277 12,900 1,500 Climbing Minneapolis Center
01:56PM 41.5611 -96.1606 304° West 244 281 14,500 1,560 Climbing Minneapolis Center
01:57PM 41.6089 -96.2542 304° West 252 290 16,500 1,800 Climbing Minneapolis Center
01:58PM 41.6569 -96.3492 304° West 256 295 18,300 1,560 Climbing Minneapolis Center
01:59PM 41.6975 -96.4317 303° West 263 303 19,800 1,440 Climbing Minneapolis Center
02:00PM 41.7389 -96.5150 304° West 267 307 21,300 1,440 Climbing Minneapolis Center
02:01PM 41.7803 -96.5978 304° West 268 308 22,800 780 Climbing Minneapolis Center
02:02PM 41.8244 -96.6853 304° West 277 319 23,000 600 Climbing Minneapolis Center
02:03PM 41.8733 -96.7831 304° West 306 352 24,100 1,200 Climbing Minneapolis Center
02:04PM 41.9283 -96.8969 303° West 306 352 25,600 1,080 Climbing Minneapolis Center
02:05PM 41.9650 -96.9717 303° West 302 348 26,400 960 Climbing Minneapolis Center
02:06PM 42.0219 -97.0864 304° West 306 352 27,600 960 Climbing Minneapolis Center
02:07PM 42.0692 -97.1817 304° West 306 352 28,500 900 Climbing Minneapolis Center
02:09PM 42.1147 -97.2769 303° West 305 351 29,500 840 Climbing Minneapolis Center
02:10PM 42.1614 -97.3731 303° West 305 351 30,300 780 Climbing Minneapolis Center
02:11PM 42.2186 -97.4892 304° West 309 356 31,200 780 Climbing Minneapolis Center
02:12PM 42.2664 -97.5872 303° West 312 359 32,000 720 Climbing Minneapolis Center
02:13PM 42.3122 -97.6861 302° West 311 358 32,700 660 Climbing Minneapolis Center
02:14PM 42.3606 -97.7850 304° West 313 360 33,400 720 Climbing Minneapolis Center
02:15PM 42.4133 -97.8961 303° West 315 362 34,200 660 Climbing Minneapolis Center
02:16PM 42.4594 -97.9942 303° West 311 358 34,800 480 Climbing Minneapolis Center
02:17PM 42.5069 -98.0933 303° West 313 360 35,200 480 Climbing Minneapolis Center
02:18PM 42.5550 -98.1928 303° West 315 362 35,800 360 Climbing Minneapolis Center
02:19PM 42.6011 -98.2917 302° West 311 358 36,000 60 Climbing Minneapolis Center
02:20PM 42.6594 -98.4158 303° West 323 372 36,000  Level Minneapolis Center
02:21PM 42.7089 -98.5211 303° West 330 380 36,000  Level Minneapolis Center
02:22PM 42.7597 -98.6294 303° West 337 388 36,000  Level Minneapolis Center
02:23PM 42.8097 -98.7397 302° West 342 394 36,000  Level Minneapolis Center
02:24PM 42.8606 -98.8492 302° West 342 394 36,000  Level Minneapolis Center
02:25PM 42.9122 -98.9600 303° West 346 398 36,000  Level Minneapolis Center
02:26PM 42.9733 -99.0944 302° West 347 399 36,000  Level Minneapolis Center
02:27PM 43.0250 -99.2058 302° West 348 400 36,000  Level Minneapolis Center
02:28PM 43.0758 -99.3175 302° West 347 399 36,000  Level Minneapolis Center
02:29PM 43.1367 -99.4519 302° West 346 398 36,000  Level Minneapolis Center
02:30PM 43.1878 -99.5650 302° West 347 399 36,000  Level Minneapolis Center
02:32PM 43.2472 -99.6989 301° West 345 397 36,000  Level Minneapolis Center
02:33PM 43.2975 -99.8086 302° West 342 394 36,000  Level Minneapolis Center
02:34PM 43.3464 -99.9197 301° West 341 392 36,000  Level Minneapolis Center
02:35PM 43.3944 -100.0281 301° West 337 388 36,000  Level Minneapolis Center
02:36PM 43.4531 -100.1581 302° West 333 383 36,000  Level Minneapolis Center
02:37PM 43.4997 -100.2669 301° West 331 381 36,000  Level Minneapolis Center
02:38PM 43.5472 -100.3744 301° West 329 379 36,000  Level Minneapolis Center
02:39PM 43.6039 -100.5053 301° West 330 380 36,000  Level Minneapolis Center
02:40PM 43.6506 -100.6117 301° West 326 375 36,000  Level Minneapolis Center
02:41PM 43.6975 -100.7206 301° West 328 377 36,000  Level Minneapolis Center
02:42PM 43.7447 -100.8286 301° West 328 377 36,000  Level Minneapolis Center
02:43PM 43.7908 -100.9386 300° West 329 379 36,000  Level Minneapolis Center
02:44PM 43.8381 -101.0472 301° West 329 379 36,000  Level Minneapolis Center
02:45PM 43.8856 -101.1575 301° West 331 381 36,000  Level Minneapolis Center
02:46PM 43.9417 -101.2917 300° West 333 383 36,000  Level Minneapolis Center
02:47PM 43.9892 -101.4042 300° West 335 386 36,000  Level Minneapolis Center
02:48PM 44.0375 -101.5156 301° West 336 387 36,000  Level Minneapolis Center
02:49PM 44.0842 -101.6286 300° West 336 387 36,000  Level Minneapolis Center
02:50PM 44.1311 -101.7392 301° West 335 386 36,000  Level Minneapolis Center
02:51PM 44.1772 -101.8503 300° West 334 384 36,000  Level Minneapolis Center
02:52PM 44.2328 -101.9836 300° West 332 382 36,000  Level Minneapolis Center
02:54PM 44.2817 -102.0972 301° West 334 384 36,000  Level Minneapolis Center
02:55PM 44.3367 -102.2317 300° West 334 384 36,000  Level Minneapolis Center
02:56PM 44.3831 -102.3450 300° West 335 386 36,000  Level Minneapolis Center
02:57PM 44.4294 -102.4581 300° West 335 386 36,000  Level Minneapolis Center
02:58PM 44.4753 -102.5714 300° West 335 386 36,000  Level Minneapolis Center
02:59PM 44.5311 -102.7067 300° West 334 384 36,000  Level Minneapolis Center
03:00PM 44.5758 -102.8206 299° West 334 384 36,000  Level Minneapolis Center
03:01PM 44.6281 -102.9547 299° West 334 384 36,000  Level Denver Center
03:02PM 44.6731 -103.0692 299° West 335 386 36,000  Level Denver Center
03:03PM 44.7197 -103.1844 300° West 337 388 36,000  Level Denver Center
03:04PM 44.7722 -103.3200 299° West 331 381 36,000  Level Denver Center
03:05PM 44.8275 -103.4572 300° West 335 386 36,000  Level Denver Center
03:06PM 44.8758 -103.5772 300° West 333 383 36,000  Level Salt Lake Center
03:08PM 44.9189 -103.6875 299° West 336 387 36,000  Level Salt Lake Center
03:09PM 44.9686 -103.8156 299° West 334 384 36,000  Level Salt Lake Center
03:10PM 45.0117 -103.9269 299° West 335 386 36,000  Level Salt Lake Center
03:11PM 45.0608 -104.0553 299° West 335 386 36,000  Level Salt Lake Center
03:12PM 45.1036 -104.1656 299° West 336 387 36,000  Level Salt Lake Center
03:13PM 45.1453 -104.2747 298° West 331 381 36,000  Level Salt Lake Center
03:14PM 45.1947 -104.4050 298° West 335 386 36,000  Level Salt Lake Center
03:15PM 45.2397 -104.5264 298° West 333 383 36,000  Level Salt Lake Center
03:16PM 45.2806 -104.6306 299° West 333 383 36,000  Level Salt Lake Center
03:17PM 45.3328 -104.7711 298° West 336 387 36,000  Level Salt Lake Center
03:18PM 45.3750 -104.8850 298° West 331 381 36,000  Level Salt Lake Center
03:19PM 45.4178 -105.0011 298° West 330 380 36,000  Level Salt Lake Center
03:20PM 45.4611 -105.1147 299° West 329 379 36,000  Level Salt Lake Center
03:21PM 45.5036 -105.2311 298° West 331 381 36,000  Level Salt Lake Center
03:22PM 45.5464 -105.3475 298° West 332 382 36,000  Level Salt Lake Center
03:23PM 45.5983 -105.4867 298° West 332 382 36,000  Level Salt Lake Center
03:24PM 45.6403 -105.6033 297° West 333 383 36,000  Level Salt Lake Center
03:25PM 45.6819 -105.7211 297° West 333 383 36,000  Level Salt Lake Center
03:26PM 45.7242 -105.8375 297° West 331 381 36,000  Level Salt Lake Center
03:27PM 45.7672 -105.9533 298° West 331 381 36,000  Level Salt Lake Center
03:28PM 45.8144 -106.0906 296° West 325 374 36,000  Level Salt Lake Center
03:29PM 45.8550 -106.2042 297° West 323 372 36,000  Level Salt Lake Center
03:30PM 45.8961 -106.3206 297° West 325 374 36,000  Level Salt Lake Center
03:31PM 45.9383 -106.4372 298° West 328 377 36,000  Level Salt Lake Center
03:32PM 45.9797 -106.5528 297° West 328 377 36,000  Level Salt Lake Center
03:33PM 46.0197 -106.6697 296° West 328 377 36,000  Level Salt Lake Center
03:34PM 46.0681 -106.8092 297° West 326 375 36,000  Level Salt Lake Center
03:35PM 46.1083 -106.9250 297° West 326 375 36,000  Level Salt Lake Center
03:36PM 46.1481 -107.0406 296° West 324 373 36,000  Level Salt Lake Center
03:38PM 46.1894 -107.1586 297° West 328 377 36,000  Level Salt Lake Center
03:39PM 46.2289 -107.2767 296° West 328 377 36,000  Level Salt Lake Center
03:40PM 46.2772 -107.4175 296° West 329 379 36,000  Level Salt Lake Center
03:41PM 46.3169 -107.5339 296° West 325 374 36,000  Level Salt Lake Center
03:42PM 46.3561 -107.6492 296° West 320 368 36,000  Level Salt Lake Center
03:43PM 46.3947 -107.7642 296° West 319 367 36,000  Level Salt Lake Center
03:44PM 46.4331 -107.8794 296° West 319 367 36,000  Level Salt Lake Center
03:45PM 46.4711 -107.9939 296° West 317 365 36,000  Level Salt Lake Center
03:46PM 46.5161 -108.1297 296° West 314 361 36,000  Level Salt Lake Center
03:47PM 46.5542 -108.2439 296° West 316 364 36,000  Level Salt Lake Center
03:49PM 46.6283 -108.4708 296° West 312 359 36,000  Level Salt Lake Center
03:50PM 46.6697 -108.5806 299° West 312 359 36,000  Level Salt Lake Center
03:51PM 46.7267 -108.6781 310° West 317 365 36,000  Level Salt Lake Center
03:52PM 46.8203 -108.7442 334° Northwest 315 362 36,000  Level Salt Lake Center
03:53PM 46.9106 -108.7478 358° North 324 373 36,100  Climbing Salt Lake Center
03:54PM 46.9844 -108.8089 331° Northwest 313 360 36,000 -120 Descending Salt Lake Center
03:55PM 47.0403 -108.8997 312° West 305 351 35,900  Descending Salt Lake Center
03:56PM 47.0858 -109.0231 299° West 302 348 36,100 60 Climbing Salt Lake Center
03:57PM 47.1194 -109.1353 294° West 302 348 36,100 -60 Level Salt Lake Center
03:59PM 47.1562 -109.3023 288° West  Level FlightAware Approximate
04:00PM 47.2144 -109.4769 288° West 302 348 36,000  Level Salt Lake Center
04:01PM 47.2422 -109.5950 289° West 306 352 36,000  Level Salt Lake Center
04:02PM 47.2783 -109.7356 291° West 307 353 36,000  Level Salt Lake Center
04:03PM 47.3083 -109.8533 291° West 309 356 36,000  Level Salt Lake Center
04:04PM 47.3378 -109.9736 290° West 311 358 36,000  Level Salt Lake Center
04:05PM 47.3681 -110.0925 291° West 311 358 36,000  Level Salt Lake Center
04:06PM 47.3428 -110.1720 288° West  Level FlightAware Approximate
04:06PM 47.3978 -110.2117 290° West 311 358 36,000  Level Salt Lake Center
04:07PM 47.4269 -110.3322 290° West 313 360 36,000  Level Salt Lake Center
04:09PM 47.4628 -110.4744 290° West 309 356 36,000  Level Salt Lake Center
04:10PM 47.4933 -110.5939 291° West 311 358 36,000  Level Salt Lake Center
04:11PM 47.5219 -110.7128 290° West 309 356 36,000  Level Salt Lake Center
04:12PM 47.5497 -110.8319 289° West 308 354 36,000  Level Salt Lake Center
04:13PM 47.5789 -110.9511 290° West 310 357 36,000  Level Salt Lake Center
04:14PM 47.6075 -111.0697 290° West 310 357 36,000  Level Salt Lake Center
04:15PM 47.6389 -111.2108 288° West 310 357 36,000  Level Salt Lake Center
04:16PM 47.6656 -111.3306 288° West 310 357 36,000  Level Salt Lake Center
04:17PM 47.6958 -111.4439 292° West 309 356 36,000  Level Salt Lake Center
04:18PM 47.7233 -111.5614 289° West 306 352 36,000  Level Salt Lake Center
04:19PM 47.7550 -111.7019 289° West 303 349 36,000  Level Salt Lake Center
04:20PM 47.7828 -111.8192 289° West 302 348 36,000  Level Salt Lake Center
04:21PM 47.8094 -111.9353 289° West 299 344 36,000  Level Salt Lake Center
04:22PM 47.8347 -112.0544 288° West 301 346 36,000 -480 Level Salt Lake Center
04:23PM 47.8628 -112.1744 289° West 306 352 35,100 -1,200 Descending Salt Lake Center
04:24PM 47.8936 -112.3053 289° West 326 375 33,600 -1,920 Descending Salt Lake Center
04:25PM 47.9319 -112.4781 288° West 357 411 31,200 -2,160 Descending Salt Lake Center
04:26PM 47.9669 -112.6339 289° West 376 433 29,200 -1,560 Descending Salt Lake Center
04:27PM 47.9978 -112.7792 288° West 371 427 28,000 -1,680 Descending Salt Lake Center
04:28PM 48.0303 -112.9247 289° West 370 426 25,800 -2,160 Descending Salt Lake Center
04:29PM 48.0619 -113.0689 288° West 368 423 23,600 -2,280 Descending Salt Lake Center
04:30PM 48.0925 -113.2089 288° West 359 413 21,100 -2,460 Descending Salt Lake Center
04:31PM 48.1214 -113.3431 288° West 346 398 18,600 -2,460 Descending Salt Lake Center
04:32PM 48.1469 -113.4658 287° West 320 368 16,100 -1,800 Descending Salt Lake Center
04:33PM 48.1764 -113.6033 288° West 296 341 15,000 -540 Descending Salt Lake Center
04:34PM 48.1997 -113.7128 288° West 282 325 15,000  Level Salt Lake Center
04:35PM 48.2214 -113.8178 287° West 270 311 15,000 -1,500 Level Salt Lake Center
04:36PM 48.2408 -113.9128 287° West 247 284 12,000 -2,880 Descending Salt Lake Center
04:37PM 48.2625 -114.0183 287° West 255 293 9,100 -2,280 Descending Salt Lake Center
04:38PM 48.2675 -114.1367 274° West 248 285 7,300 -1,320 Descending Salt Lake Center
04:39PM 48.2550 -114.2092 256° West 212 244 6,400 -1,260 Descending Salt Lake Center
04:40PM 48.2828 -114.2333 330° Northwest 172 198 4,800 -1,080 Descending Salt Lake Center
04:42PM 48.3125 -114.2000 37° Northeast 147 169 4,300 -600 Descending Salt Lake Center
04:43PM 48.3356 -114.2231 326° Northwest 132 152 3,600 -720 Descending Salt Lake Center
04:44PM 48.3139 -114.2519 222° Southwest 114 131 2,900 -720 Descending Salt Lake Center